sensor_id;sensor_type;location;lat;lon;timestamp;pressure;altitude;pressure_sealevel;temperature;humidity
78383;BME280;67668;52.294;4.692;2024-03-08T00:01:06;102014.69;;;6.01;75.24
78383;BME280;67668;52.294;4.692;2024-03-08T00:03:31;102011.31;;;5.99;74.45
78383;BME280;67668;52.294;4.692;2024-03-08T00:05:57;101996.53;;;5.97;74.84
78383;BME280;67668;52.294;4.692;2024-03-08T00:08:23;101993.22;;;5.93;75.22
78383;BME280;67668;52.294;4.692;2024-03-08T00:10:48;101994.19;;;5.92;74.92
78383;BME280;67668;52.294;4.692;2024-03-08T00:13:14;101995.19;;;5.90;75.41
78383;BME280;67668;52.294;4.692;2024-03-08T00:15:39;101992.56;;;5.90;74.76
78383;BME280;67668;52.294;4.692;2024-03-08T00:18:06;101989.09;;;5.89;75.12
78383;BME280;67668;52.294;4.692;2024-03-08T00:20:31;101983.16;;;5.86;74.68
78383;BME280;67668;52.294;4.692;2024-03-08T00:22:57;101991.91;;;5.85;75.46
78383;BME280;67668;52.294;4.692;2024-03-08T00:25:23;101977.09;;;5.84;74.71
78383;BME280;67668;52.294;4.692;2024-03-08T00:27:48;101980.84;;;5.80;75.09
78383;BME280;67668;52.294;4.692;2024-03-08T00:30:14;101967.88;;;5.77;74.50
78383;BME280;67668;52.294;4.692;2024-03-08T00:32:40;101976.66;;;5.76;75.28
78383;BME280;67668;52.294;4.692;2024-03-08T00:35:05;101969.72;;;5.74;74.48
78383;BME280;67668;52.294;4.692;2024-03-08T00:37:33;101967.25;;;5.71;74.48
78383;BME280;67668;52.294;4.692;2024-03-08T00:40:01;101968.28;;;5.69;74.34
78383;BME280;67668;52.294;4.692;2024-03-08T00:42:26;101966.56;;;5.68;74.16
78383;BME280;67668;52.294;4.692;2024-03-08T00:44:52;101970.03;;;5.68;74.25
78383;BME280;67668;52.294;4.692;2024-03-08T00:47:17;101966.50;;;5.69;74.12
78383;BME280;67668;52.294;4.692;2024-03-08T00:49:43;101967.41;;;5.68;74.61
78383;BME280;67668;52.294;4.692;2024-03-08T00:52:08;101961.47;;;5.65;74.34
78383;BME280;67668;52.294;4.692;2024-03-08T00:54:34;101965.88;;;5.64;74.07
78383;BME280;67668;52.294;4.692;2024-03-08T00:57:00;101955.47;;;5.63;74.68
78383;BME280;67668;52.294;4.692;2024-03-08T00:59:28;101949.53;;;5.59;74.25
78383;BME280;67668;52.294;4.692;2024-03-08T01:01:53;101952.16;;;5.59;73.94
78383;BME280;67668;52.294;4.692;2024-03-08T01:04:18;101950.41;;;5.60;73.96
78383;BME280;67668;52.294;4.692;2024-03-08T01:06:45;101940.88;;;5.57;73.88
78383;BME280;67668;52.294;4.692;2024-03-08T01:09:12;101949.78;;;5.55;73.72
78383;BME280;67668;52.294;4.692;2024-03-08T01:11:38;101934.03;;;5.55;73.50
78383;BME280;67668;52.294;4.692;2024-03-08T01:14:03;101926.16;;;5.55;72.97
78383;BME280;67668;52.294;4.692;2024-03-08T01:16:28;101927.91;;;5.54;73.43
78383;BME280;67668;52.294;4.692;2024-03-08T01:18:53;101921.91;;;5.52;73.45
78383;BME280;67668;52.294;4.692;2024-03-08T01:21:19;101921.91;;;5.52;73.12
78383;BME280;67668;52.294;4.692;2024-03-08T01:23:44;101910.81;;;5.47;73.37
78383;BME280;67668;52.294;4.692;2024-03-08T01:26:09;101922.41;;;5.43;73.51
78383;BME280;67668;52.294;4.692;2024-03-08T01:28:35;101907.59;;;5.42;73.70
78383;BME280;67668;52.294;4.692;2024-03-08T01:31:00;101904.13;;;5.42;73.14
78383;BME280;67668;52.294;4.692;2024-03-08T01:33:26;101905.13;;;5.39;72.77
78383;BME280;67668;52.294;4.692;2024-03-08T01:35:55;101893.09;;;5.35;72.89
78383;BME280;67668;52.294;4.692;2024-03-08T01:38:22;101890.47;;;5.35;73.02
78383;BME280;67668;52.294;4.692;2024-03-08T01:40:48;101891.38;;;5.34;73.10
78383;BME280;67668;52.294;4.692;2024-03-08T01:45:44;101890.72;;;5.31;72.88
78383;BME280;67668;52.294;4.692;2024-03-08T01:48:10;101888.25;;;5.28;72.69
78383;BME280;67668;52.294;4.692;2024-03-08T01:50:35;101888.34;;;5.26;72.74
78383;BME280;67668;52.294;4.692;2024-03-08T01:53:01;101880.47;;;5.26;73.15
78383;BME280;67668;52.294;4.692;2024-03-08T01:55:27;101878.88;;;5.24;72.31
78383;BME280;67668;52.294;4.692;2024-03-08T01:57:53;101871.06;;;5.22;73.72
78383;BME280;67668;52.294;4.692;2024-03-08T02:00:18;101871.91;;;5.22;73.67
78383;BME280;67668;52.294;4.692;2024-03-08T02:02:46;101874.53;;;5.22;73.01
78383;BME280;67668;52.294;4.692;2024-03-08T02:05:12;101869.28;;;5.22;73.17
78383;BME280;67668;52.294;4.692;2024-03-08T02:07:41;101871.81;;;5.24;73.52
78383;BME280;67668;52.294;4.692;2024-03-08T02:10:09;101865.81;;;5.22;73.01
78383;BME280;67668;52.294;4.692;2024-03-08T02:12:34;101865.13;;;5.18;72.53
78383;BME280;67668;52.294;4.692;2024-03-08T02:15:00;101860.75;;;5.19;73.28
78383;BME280;67668;52.294;4.692;2024-03-08T02:17:25;101859.81;;;5.20;72.70
78383;BME280;67668;52.294;4.692;2024-03-08T02:19:50;101858.97;;;5.19;72.15
78383;BME280;67668;52.294;4.692;2024-03-08T02:22:16;101856.41;;;5.18;71.87
78383;BME280;67668;52.294;4.692;2024-03-08T02:24:42;101855.66;;;5.16;72.66
78383;BME280;67668;52.294;4.692;2024-03-08T02:27:07;101853.25;;;5.11;72.14
78383;BME280;67668;52.294;4.692;2024-03-08T02:29:33;101849.88;;;5.09;72.21
78383;BME280;67668;52.294;4.692;2024-03-08T02:31:59;101838.72;;;5.06;72.32
78383;BME280;67668;52.294;4.692;2024-03-08T02:34:24;101840.41;;;5.07;72.58
78383;BME280;67668;52.294;4.692;2024-03-08T02:36:50;101836.16;;;5.04;72.59
78383;BME280;67668;52.294;4.692;2024-03-08T02:39:15;101845.78;;;5.04;72.59
78383;BME280;67668;52.294;4.692;2024-03-08T02:41:41;101830.06;;;5.04;72.31
78383;BME280;67668;52.294;4.692;2024-03-08T02:44:07;101823.88;;;5.05;72.54
78383;BME280;67668;52.294;4.692;2024-03-08T02:46:32;101824.97;;;5.01;72.43
78383;BME280;67668;52.294;4.692;2024-03-08T02:48:58;101816.34;;;4.99;72.48
78383;BME280;67668;52.294;4.692;2024-03-08T02:51:23;101819.16;;;4.96;72.10
78383;BME280;67668;52.294;4.692;2024-03-08T02:53:51;101813.16;;;4.94;72.54
78383;BME280;67668;52.294;4.692;2024-03-08T02:56:17;101809.75;;;4.92;72.63
78383;BME280;67668;52.294;4.692;2024-03-08T02:58:43;101810.66;;;4.91;72.48
78383;BME280;67668;52.294;4.692;2024-03-08T03:01:08;101799.41;;;4.89;72.13
78383;BME280;67668;52.294;4.692;2024-03-08T03:03:35;101807.28;;;4.89;72.78
78383;BME280;67668;52.294;4.692;2024-03-08T03:06:00;101799.41;;;4.89;72.63
78383;BME280;67668;52.294;4.692;2024-03-08T03:08:26;101798.72;;;4.85;72.30
78383;BME280;67668;52.294;4.692;2024-03-08T03:10:51;101802.28;;;4.84;73.10
78383;BME280;67668;52.294;4.692;2024-03-08T03:13:16;101798.72;;;4.85;71.64
78383;BME280;67668;52.294;4.692;2024-03-08T03:15:46;101788.34;;;4.84;72.20
78383;BME280;67668;52.294;4.692;2024-03-08T03:18:11;101791.09;;;4.81;72.33
78383;BME280;67668;52.294;4.692;2024-03-08T03:20:36;101793.88;;;4.78;72.48
78383;BME280;67668;52.294;4.692;2024-03-08T03:23:09;101795.81;;;4.74;72.12
78383;BME280;67668;52.294;4.692;2024-03-08T03:25:35;101786.28;;;4.73;72.28
78383;BME280;67668;52.294;4.692;2024-03-08T03:28:03;101783.66;;;4.73;72.71
78383;BME280;67668;52.294;4.692;2024-03-08T03:30:30;101789.97;;;4.69;72.46
78383;BME280;67668;52.294;4.692;2024-03-08T03:32:59;101781.19;;;4.70;72.21
78383;BME280;67668;52.294;4.692;2024-03-08T03:35:32;101775.16;;;4.68;72.22
78383;BME280;67668;52.294;4.692;2024-03-08T03:37:57;101770.94;;;4.65;72.24
78383;BME280;67668;52.294;4.692;2024-03-08T03:40:29;101769.41;;;4.61;72.11
78383;BME280;67668;52.294;4.692;2024-03-08T03:42:55;101772.97;;;4.60;71.78
78383;BME280;67668;52.294;4.692;2024-03-08T03:45:20;101762.56;;;4.59;71.97
78383;BME280;67668;52.294;4.692;2024-03-08T03:47:46;101762.63;;;4.57;71.80
78383;BME280;67668;52.294;4.692;2024-03-08T03:50:11;101763.63;;;4.55;71.72
78383;BME280;67668;52.294;4.692;2024-03-08T03:52:37;101753.31;;;4.52;72.13
78383;BME280;67668;52.294;4.692;2024-03-08T03:55:03;101756.03;;;4.50;71.95
78383;BME280;67668;52.294;4.692;2024-03-08T03:57:30;101756.19;;;4.47;71.72
78383;BME280;67668;52.294;4.692;2024-03-08T03:59:55;101759.72;;;4.46;72.15
78383;BME280;67668;52.294;4.692;2024-03-08T04:02:20;101753.66;;;4.46;72.22
78383;BME280;67668;52.294;4.692;2024-03-08T04:04:47;101756.25;;;4.46;72.39
78383;BME280;67668;52.294;4.692;2024-03-08T04:07:13;101750.16;;;4.45;71.89
78383;BME280;67668;52.294;4.692;2024-03-08T04:09:38;101754.72;;;4.42;71.46
78383;BME280;67668;52.294;4.692;2024-03-08T04:12:04;101752.25;;;4.39;72.26
78383;BME280;67668;52.294;4.692;2024-03-08T04:14:29;101753.13;;;4.39;71.99
78383;BME280;67668;52.294;4.692;2024-03-08T04:16:55;101747.88;;;4.39;72.20
78383;BME280;67668;52.294;4.692;2024-03-08T04:19:20;101742.81;;;4.36;72.39
78383;BME280;67668;52.294;4.692;2024-03-08T04:21:45;101747.19;;;4.36;72.55
78383;BME280;67668;52.294;4.692;2024-03-08T04:24:12;101745.47;;;4.35;72.19
78383;BME280;67668;52.294;4.692;2024-03-08T04:26:37;101736.94;;;4.31;72.55
78383;BME280;67668;52.294;4.692;2024-03-08T04:29:03;101736.94;;;4.31;72.36
78383;BME280;67668;52.294;4.692;2024-03-08T04:31:28;101735.31;;;4.29;72.76
78383;BME280;67668;52.294;4.692;2024-03-08T04:33:56;101738.97;;;4.26;72.67
78383;BME280;67668;52.294;4.692;2024-03-08T04:36:21;101740.72;;;4.26;72.73
78383;BME280;67668;52.294;4.692;2024-03-08T04:38:47;101736.34;;;4.26;72.50
78383;BME280;67668;52.294;4.692;2024-03-08T04:41:12;101739.13;;;4.23;72.82
78383;BME280;67668;52.294;4.692;2024-03-08T04:43:38;101750.50;;;4.22;72.95
78383;BME280;67668;52.294;4.692;2024-03-08T04:46:04;101738.44;;;4.20;72.72
78383;BME280;67668;52.294;4.692;2024-03-08T04:48:30;101737.50;;;4.21;72.94
78383;BME280;67668;52.294;4.692;2024-03-08T04:50:56;101732.34;;;4.19;72.94
78383;BME280;67668;52.294;4.692;2024-03-08T04:53:21;101733.25;;;4.18;73.05
78383;BME280;67668;52.294;4.692;2024-03-08T04:55:47;101730.72;;;4.16;72.97
78383;BME280;67668;52.294;4.692;2024-03-08T04:58:12;101726.50;;;4.14;73.04
78383;BME280;67668;52.294;4.692;2024-03-08T05:00:37;101729.03;;;4.15;73.32
78383;BME280;67668;52.294;4.692;2024-03-08T05:03:03;101718.47;;;4.17;73.03
78383;BME280;67668;52.294;4.692;2024-03-08T05:05:30;101711.53;;;4.16;72.77
78383;BME280;67668;52.294;4.692;2024-03-08T05:07:55;101709.84;;;4.15;72.81
78383;BME280;67668;52.294;4.692;2024-03-08T05:10:20;101710.00;;;4.12;72.57
78383;BME280;67668;52.294;4.692;2024-03-08T05:12:46;101708.28;;;4.11;72.86
78383;BME280;67668;52.294;4.692;2024-03-08T05:15:12;101704.91;;;4.09;72.92
78383;BME280;67668;52.294;4.692;2024-03-08T05:17:37;101706.00;;;4.05;73.07
78383;BME280;67668;52.294;4.692;2024-03-08T05:20:03;101707.88;;;4.03;73.29
78383;BME280;67668;52.294;4.692;2024-03-08T05:22:36;101712.19;;;4.04;73.57
78383;BME280;67668;52.294;4.692;2024-03-08T05:25:02;101693.84;;;4.04;73.25
78383;BME280;67668;52.294;4.692;2024-03-08T05:27:27;101707.88;;;4.03;72.82
78383;BME280;67668;52.294;4.692;2024-03-08T05:29:53;101705.31;;;4.01;72.76
78383;BME280;67668;52.294;4.692;2024-03-08T05:32:18;101698.56;;;3.97;73.15
78383;BME280;67668;52.294;4.692;2024-03-08T05:34:44;101704.03;;;3.93;73.01
78383;BME280;67668;52.294;4.692;2024-03-08T05:37:09;101696.16;;;3.93;72.97
78383;BME280;67668;52.294;4.692;2024-03-08T05:39:35;101695.31;;;3.92;72.54
78383;BME280;67668;52.294;4.692;2024-03-08T05:42:01;101694.47;;;3.92;72.90
78383;BME280;67668;52.294;4.692;2024-03-08T05:44:26;101699.78;;;3.90;73.20
78383;BME280;67668;52.294;4.692;2024-03-08T05:46:54;101687.63;;;3.89;73.47
78383;BME280;67668;52.294;4.692;2024-03-08T05:49:19;101698.03;;;3.91;73.82
78383;BME280;67668;52.294;4.692;2024-03-08T05:51:44;101691.00;;;3.91;73.73
78383;BME280;67668;52.294;4.692;2024-03-08T05:54:12;101692.69;;;3.92;72.80
78383;BME280;67668;52.294;4.692;2024-03-08T05:56:38;101691.00;;;3.91;73.05
78383;BME280;67668;52.294;4.692;2024-03-08T05:59:04;101691.16;;;3.88;73.16
78383;BME280;67668;52.294;4.692;2024-03-08T06:01:29;101689.53;;;3.86;73.70
78383;BME280;67668;52.294;4.692;2024-03-08T06:03:56;101687.94;;;3.83;73.94
78383;BME280;67668;52.294;4.692;2024-03-08T06:06:25;101679.22;;;3.83;73.54
78383;BME280;67668;52.294;4.692;2024-03-08T06:08:51;101686.31;;;3.81;73.11
78383;BME280;67668;52.294;4.692;2024-03-08T06:11:18;101686.50;;;3.78;73.51
78383;BME280;67668;52.294;4.692;2024-03-08T06:13:45;101672.59;;;3.76;73.24
78383;BME280;67668;52.294;4.692;2024-03-08T06:16:10;101673.53;;;3.75;73.26
78383;BME280;67668;52.294;4.692;2024-03-08T06:18:36;101672.59;;;3.76;73.15
78383;BME280;67668;52.294;4.692;2024-03-08T06:21:05;101670.91;;;3.75;73.63
78383;BME280;67668;52.294;4.692;2024-03-08T06:23:32;101668.38;;;3.73;73.19
78383;BME280;67668;52.294;4.692;2024-03-08T06:25:57;101667.63;;;3.71;73.36
78383;BME280;67668;52.294;4.692;2024-03-08T06:28:23;101669.28;;;3.72;73.58
78383;BME280;67668;52.294;4.692;2024-03-08T06:30:48;101664.06;;;3.72;72.93
78383;BME280;67668;52.294;4.692;2024-03-08T06:33:15;101671.06;;;3.72;73.59
78383;BME280;67668;52.294;4.692;2024-03-08T06:35:41;101676.28;;;3.72;73.11
78383;BME280;67668;52.294;4.692;2024-03-08T06:38:06;101673.78;;;3.70;73.20
78383;BME280;67668;52.294;4.692;2024-03-08T06:40:32;101672.16;;;3.68;73.30
78383;BME280;67668;52.294;4.692;2024-03-08T06:42:57;101673.94;;;3.67;73.39
78383;BME280;67668;52.294;4.692;2024-03-08T06:45:23;101663.38;;;3.69;72.87
78383;BME280;67668;52.294;4.692;2024-03-08T06:47:49;101668.59;;;3.69;72.66
78383;BME280;67668;52.294;4.692;2024-03-08T06:50:15;101666.16;;;3.65;73.51
78383;BME280;67668;52.294;4.692;2024-03-08T06:52:41;101659.25;;;3.64;73.10
78383;BME280;67668;52.294;4.692;2024-03-08T06:55:08;101663.63;;;3.64;73.27
78383;BME280;67668;52.294;4.692;2024-03-08T06:57:40;101660.00;;;3.67;72.85
78383;BME280;67668;52.294;4.692;2024-03-08T07:00:09;101665.22;;;3.67;73.03
78383;BME280;67668;52.294;4.692;2024-03-08T07:02:36;101654.81;;;3.65;72.90
78383;BME280;67668;52.294;4.692;2024-03-08T07:05:02;101662.78;;;3.63;73.17
78383;BME280;67668;52.294;4.692;2024-03-08T07:07:29;101659.47;;;3.60;72.90
78383;BME280;67668;52.294;4.692;2024-03-08T07:09:55;101657.84;;;3.57;73.43
78383;BME280;67668;52.294;4.692;2024-03-08T07:12:21;101650.75;;;3.59;72.98
78383;BME280;67668;52.294;4.692;2024-03-08T07:14:48;101659.53;;;3.58;73.50
78383;BME280;67668;52.294;4.692;2024-03-08T07:17:14;101650.75;;;3.59;73.57
78383;BME280;67668;52.294;4.692;2024-03-08T07:19:39;101642.84;;;3.61;73.55
78383;BME280;67668;52.294;4.692;2024-03-08T07:22:05;101647.06;;;3.63;72.60
78383;BME280;67668;52.294;4.692;2024-03-08T07:24:37;101655.84;;;3.62;73.05
78383;BME280;67668;52.294;4.692;2024-03-08T07:27:04;101635.75;;;3.63;73.44
78383;BME280;67668;52.294;4.692;2024-03-08T07:29:30;101640.13;;;3.62;73.07
78383;BME280;67668;52.294;4.692;2024-03-08T07:31:56;101642.69;;;3.64;72.66
78383;BME280;67668;52.294;4.692;2024-03-08T07:34:36;101631.25;;;3.65;73.03
78383;BME280;67668;52.294;4.692;2024-03-08T07:37:01;101629.50;;;3.65;72.91
78383;BME280;67668;52.294;4.692;2024-03-08T07:39:27;101621.66;;;3.65;72.62
78383;BME280;67668;52.294;4.692;2024-03-08T07:41:52;101629.44;;;3.67;73.23
78383;BME280;67668;52.294;4.692;2024-03-08T07:44:21;101625.97;;;3.67;73.18
78383;BME280;67668;52.294;4.692;2024-03-08T07:46:46;101618.72;;;3.72;73.33
78383;BME280;67668;52.294;4.692;2024-03-08T07:49:11;101617.72;;;3.74;72.36
78383;BME280;67668;52.294;4.692;2024-03-08T07:51:38;101616.03;;;3.73;72.27
78383;BME280;67668;52.294;4.692;2024-03-08T07:54:04;101615.00;;;3.76;72.58
78383;BME280;67668;52.294;4.692;2024-03-08T07:56:29;101607.84;;;3.79;73.23
78383;BME280;67668;52.294;4.692;2024-03-08T07:58:55;101617.16;;;3.85;73.05
78383;BME280;67668;52.294;4.692;2024-03-08T08:01:20;101618.69;;;3.89;72.83
78383;BME280;67668;52.294;4.692;2024-03-08T08:03:46;101605.53;;;3.90;72.45
78383;BME280;67668;52.294;4.692;2024-03-08T08:06:12;101602.66;;;3.95;72.94
78383;BME280;67668;52.294;4.692;2024-03-08T08:08:44;101615.44;;;4.01;72.54
78383;BME280;67668;52.294;4.692;2024-03-08T08:11:09;101602.09;;;4.05;72.23
78383;BME280;67668;52.294;4.692;2024-03-08T08:13:36;101600.00;;;4.12;71.56
78383;BME280;67668;52.294;4.692;2024-03-08T08:16:05;101601.47;;;4.18;72.04
78383;BME280;67668;52.294;4.692;2024-03-08T08:18:33;101595.03;;;4.23;71.89
78383;BME280;67668;52.294;4.692;2024-03-08T08:21:00;101598.16;;;4.30;71.09
78383;BME280;67668;52.294;4.692;2024-03-08T08:23:26;101589.09;;;4.35;71.31
78383;BME280;67668;52.294;4.692;2024-03-08T08:25:51;101592.16;;;4.43;70.83
78383;BME280;67668;52.294;4.692;2024-03-08T08:28:17;101583.03;;;4.50;70.54
78383;BME280;67668;52.294;4.692;2024-03-08T08:30:43;101585.31;;;4.56;70.79
78383;BME280;67668;52.294;4.692;2024-03-08T08:33:08;101592.00;;;4.62;70.53
78383;BME280;67668;52.294;4.692;2024-03-08T08:35:34;101586.50;;;4.66;70.39
78383;BME280;67668;52.294;4.692;2024-03-08T08:37:59;101576.59;;;4.72;70.60
78383;BME280;67668;52.294;4.692;2024-03-08T08:40:25;101582.25;;;4.80;70.65
78383;BME280;67668;52.294;4.692;2024-03-08T08:42:51;101578.25;;;4.88;70.50
78383;BME280;67668;52.294;4.692;2024-03-08T08:45:18;101581.38;;;4.95;69.91
78383;BME280;67668;52.294;4.692;2024-03-08T08:47:44;101570.44;;;5.02;69.67
78383;BME280;67668;52.294;4.692;2024-03-08T08:50:11;101576.94;;;5.11;70.09
78383;BME280;67668;52.294;4.692;2024-03-08T08:52:39;101568.56;;;5.20;69.10
78383;BME280;67668;52.294;4.692;2024-03-08T08:55:05;101559.94;;;5.32;68.57
78383;BME280;67668;52.294;4.692;2024-03-08T08:57:32;101558.47;;;5.42;67.99
78383;BME280;67668;52.294;4.692;2024-03-08T08:59:58;101567.56;;;5.51;67.60
78383;BME280;67668;52.294;4.692;2024-03-08T09:02:25;101560.28;;;5.56;67.51
78383;BME280;67668;52.294;4.692;2024-03-08T09:04:51;101550.25;;;5.62;67.90
78383;BME280;67668;52.294;4.692;2024-03-08T09:07:16;101538.31;;;5.71;67.67
78383;BME280;67668;52.294;4.692;2024-03-08T09:09:44;101529.13;;;5.78;67.44
78383;BME280;67668;52.294;4.692;2024-03-08T09:12:10;101531.50;;;5.83;66.37
78383;BME280;67668;52.294;4.692;2024-03-08T09:14:41;101534.81;;;5.86;66.88
78383;BME280;67668;52.294;4.692;2024-03-08T09:17:07;101529.16;;;5.92;66.69
78383;BME280;67668;52.294;4.692;2024-03-08T09:19:35;101527.75;;;6.01;66.56
78383;BME280;67668;52.294;4.692;2024-03-08T09:22:01;101529.25;;;6.05;66.77
78383;BME280;67668;52.294;4.692;2024-03-08T09:24:28;101517.50;;;6.10;66.94
78383;BME280;67668;52.294;4.692;2024-03-08T09:26:54;101520.56;;;6.17;66.58
78383;BME280;67668;52.294;4.692;2024-03-08T09:29:20;101520.31;;;6.21;66.01
78383;BME280;67668;52.294;4.692;2024-03-08T09:31:45;101516.34;;;6.29;66.41
78383;BME280;67668;52.294;4.692;2024-03-08T09:34:11;101509.97;;;6.33;66.18
78383;BME280;67668;52.294;4.692;2024-03-08T09:36:36;101517.53;;;6.37;66.54
78383;BME280;67668;52.294;4.692;2024-03-08T09:39:02;101503.97;;;6.43;66.30
78383;BME280;67668;52.294;4.692;2024-03-08T09:41:28;101494.03;;;6.48;66.77
78383;BME280;67668;52.294;4.692;2024-03-08T09:43:54;101489.31;;;6.53;66.53
78383;BME280;67668;52.294;4.692;2024-03-08T09:46:21;101487.03;;;6.61;66.72
78383;BME280;67668;52.294;4.692;2024-03-08T09:48:47;101483.25;;;6.65;65.91
78383;BME280;67668;52.294;4.692;2024-03-08T09:51:13;101471.47;;;6.71;65.31
78383;BME280;67668;52.294;4.692;2024-03-08T09:53:40;101477.38;;;6.74;65.52
78383;BME280;67668;52.294;4.692;2024-03-08T09:56:07;101480.44;;;6.81;64.67
78383;BME280;67668;52.294;4.692;2024-03-08T09:58:33;101460.78;;;6.87;65.21
78383;BME280;67668;52.294;4.692;2024-03-08T10:00:59;101448.88;;;6.94;65.44
78383;BME280;67668;52.294;4.692;2024-03-08T10:03:29;101451.88;;;7.02;66.55
78383;BME280;67668;52.294;4.692;2024-03-08T10:05:56;101457.56;;;7.08;65.25
78383;BME280;67668;52.294;4.692;2024-03-08T10:08:28;101459.63;;;7.16;64.24
78383;BME280;67668;52.294;4.692;2024-03-08T10:10:57;101436.38;;;7.22;64.81
78383;BME280;67668;52.294;4.692;2024-03-08T10:13:26;101447.13;;;7.32;65.27
78383;BME280;67668;52.294;4.692;2024-03-08T10:15:54;101441.31;;;7.40;64.82
78383;BME280;67668;52.294;4.692;2024-03-08T10:18:19;101426.69;;;7.48;64.03
78383;BME280;67668;52.294;4.692;2024-03-08T10:20:46;101429.50;;;7.58;64.50
78383;BME280;67668;52.294;4.692;2024-03-08T10:23:11;101427.91;;;7.68;62.43
78383;BME280;67668;52.294;4.692;2024-03-08T10:25:37;101429.03;;;7.76;62.68
78383;BME280;67668;52.294;4.692;2024-03-08T10:28:03;101418.91;;;7.83;62.09
78383;BME280;67668;52.294;4.692;2024-03-08T10:30:29;101415.50;;;7.94;62.57
78383;BME280;67668;52.294;4.692;2024-03-08T10:32:54;101415.06;;;8.00;62.31
78383;BME280;67668;52.294;4.692;2024-03-08T10:35:20;101405.88;;;8.05;61.81
78383;BME280;67668;52.294;4.692;2024-03-08T10:37:46;101403.19;;;8.18;60.90
78383;BME280;67668;52.294;4.692;2024-03-08T10:40:17;101393.53;;;8.29;61.76
78383;BME280;67668;52.294;4.692;2024-03-08T10:45:18;101384.88;;;8.51;61.55
78383;BME280;67668;52.294;4.692;2024-03-08T10:47:49;101387.53;;;8.62;62.15
78383;BME280;67668;52.294;4.692;2024-03-08T10:50:20;101378.81;;;8.73;59.94
78383;BME280;67668;52.294;4.692;2024-03-08T10:52:51;101364.19;;;8.80;60.39
78383;BME280;67668;52.294;4.692;2024-03-08T10:55:20;101362.19;;;8.95;60.44
78383;BME280;67668;52.294;4.692;2024-03-08T10:57:46;101355.72;;;9.10;61.25
78383;BME280;67668;52.294;4.692;2024-03-08T11:00:13;101351.63;;;9.17;59.76
78383;BME280;67668;52.294;4.692;2024-03-08T11:02:39;101347.31;;;9.27;58.39
78383;BME280;67668;52.294;4.692;2024-03-08T11:05:10;101343.22;;;9.34;58.42
78383;BME280;67668;52.294;4.692;2024-03-08T11:07:42;101326.63;;;9.43;58.71
78383;BME280;67668;52.294;4.692;2024-03-08T11:10:18;101331.19;;;9.52;57.53
78383;BME280;67668;52.294;4.692;2024-03-08T11:12:45;101319.66;;;9.64;59.18
78383;BME280;67668;52.294;4.692;2024-03-08T11:15:12;101307.91;;;9.78;58.41
78383;BME280;67668;52.294;4.692;2024-03-08T11:20:17;101310.25;;;10.03;57.95
78383;BME280;67668;52.294;4.692;2024-03-08T11:23:00;101294.22;;;10.16;58.57
78383;BME280;67668;52.294;4.692;2024-03-08T11:25:42;101291.28;;;10.30;59.42
78383;BME280;67668;52.294;4.692;2024-03-08T11:28:14;101294.84;;;10.40;57.00
78383;BME280;67668;52.294;4.692;2024-03-08T11:33:30;101279.31;;;10.56;55.57
78383;BME280;67668;52.294;4.692;2024-03-08T11:36:08;101269.16;;;10.61;55.61
78383;BME280;67668;52.294;4.692;2024-03-08T11:38:45;101255.28;;;10.69;53.99
78383;BME280;67668;52.294;4.692;2024-03-08T11:41:18;101270.50;;;10.76;54.74
78383;BME280;67668;52.294;4.692;2024-03-08T11:43:45;101255.63;;;10.85;55.31
78383;BME280;67668;52.294;4.692;2024-03-08T11:46:11;101264.34;;;10.97;54.73
78383;BME280;67668;52.294;4.692;2024-03-08T11:48:46;101247.91;;;11.03;53.51
78383;BME280;67668;52.294;4.692;2024-03-08T11:51:13;101254.34;;;11.10;52.70
78383;BME280;67668;52.294;4.692;2024-03-08T11:53:40;101238.75;;;11.16;53.42
78383;BME280;67668;52.294;4.692;2024-03-08T11:56:13;101234.69;;;11.22;52.96
78383;BME280;67668;52.294;4.692;2024-03-08T11:58:38;101246.28;;;11.30;53.62
78383;BME280;67668;52.294;4.692;2024-03-08T12:01:06;101222.72;;;11.37;53.21
78383;BME280;67668;52.294;4.692;2024-03-08T12:03:32;101221.19;;;11.44;53.08
78383;BME280;67668;52.294;4.692;2024-03-08T12:06:00;101209.91;;;11.52;54.06
78383;BME280;67668;52.294;4.692;2024-03-08T12:08:25;101202.38;;;11.57;53.65
78383;BME280;67668;52.294;4.692;2024-03-08T12:10:56;101209.63;;;11.64;52.54
78383;BME280;67668;52.294;4.692;2024-03-08T12:13:26;101208.97;;;11.72;52.22
78383;BME280;67668;52.294;4.692;2024-03-08T12:15:56;101189.00;;;11.77;51.90
78383;BME280;67668;52.294;4.692;2024-03-08T12:18:22;101193.06;;;11.81;51.37
78383;BME280;67668;52.294;4.692;2024-03-08T12:20:48;101192.50;;;11.87;51.38
78383;BME280;67668;52.294;4.692;2024-03-08T12:23:15;101184.41;;;11.89;49.81
78383;BME280;67668;52.294;4.692;2024-03-08T12:25:42;101196.09;;;11.86;50.80
78383;BME280;67668;52.294;4.692;2024-03-08T12:28:08;101203.94;;;11.78;47.94
78383;BME280;67668;52.294;4.692;2024-03-08T12:30:46;101205.34;;;11.73;48.87
78383;BME280;67668;52.294;4.692;2024-03-08T12:33:12;101183.31;;;11.72;50.42
78383;BME280;67668;52.294;4.692;2024-03-08T12:35:38;101185.38;;;11.78;51.89
78383;BME280;67668;52.294;4.692;2024-03-08T12:38:04;101177.16;;;11.81;49.65
78383;BME280;67668;52.294;4.692;2024-03-08T12:40:33;101173.53;;;11.82;50.04
78383;BME280;67668;52.294;4.692;2024-03-08T12:43:00;101174.63;;;11.89;50.62
78383;BME280;67668;52.294;4.692;2024-03-08T12:45:26;101160.09;;;11.93;51.00
78383;BME280;67668;52.294;4.692;2024-03-08T12:47:55;101152.97;;;11.94;51.15
78383;BME280;67668;52.294;4.692;2024-03-08T12:50:21;101159.25;;;12.03;50.32
78383;BME280;67668;52.294;4.692;2024-03-08T12:52:47;101153.66;;;12.06;51.55
78383;BME280;67668;52.294;4.692;2024-03-08T12:55:14;101143.59;;;12.09;52.41
78383;BME280;67668;52.294;4.692;2024-03-08T12:57:42;101133.25;;;12.16;51.80
78383;BME280;67668;52.294;4.692;2024-03-08T13:00:08;101132.66;;;12.22;50.97
78383;BME280;67668;52.294;4.692;2024-03-08T13:02:38;101125.63;;;12.30;50.90
78383;BME280;67668;52.294;4.692;2024-03-08T13:05:05;101127.84;;;12.35;49.67
78383;BME280;67668;52.294;4.692;2024-03-08T13:07:31;101124.31;;;12.44;49.30